Time;durP1;ratioP1;P1;durP2;ratioP2;P2;SDS_P1;SDS_P2;PMS_P1;PMS_P2;Temp;Humidity;BMP_temperature;BMP_pressure;BME280_temperature;BME280_humidity;BME280_pressure;Samples;Min_cycle;Max_cycle;Signal;HPM_P1;HPM_P2
2022/12/03 00:02:15;;;;;;;20.80;12.40;;;;;;;19.37;29.76;101756.39;104898;1292;69148;-90
2022/12/03 00:04:40;;;;;;;20.40;11.70;;;;;;;19.37;29.68;101755.61;104682;1295;69195;-90
2022/12/03 00:07:05;;;;;;;18.50;11.80;;;;;;;19.37;29.57;101751.77;105236;1280;67250;-92
2022/12/03 00:09:31;;;;;;;23.20;11.80;;;;;;;19.37;29.67;101752.23;105019;1279;69181;-91
2022/12/03 00:12:01;;;;;;;19.80;11.60;;;;;;;19.37;29.58;101752.39;105219;1285;69113;-90
2022/12/03 00:14:35;;;;;;;21.40;12.50;;;;;;;19.37;29.73;101756.48;105188;1283;69174;-90
2022/12/03 00:19:27;;;;;;;19.20;11.80;;;;;;;19.37;29.70;101752.34;105182;1279;69245;-90
2022/12/03 00:21:52;;;;;;;18.00;12.30;;;;;;;19.37;29.66;101759.39;104703;1288;69146;-93
2022/12/03 00:24:18;;;;;;;18.10;12.00;;;;;;;19.37;29.67;101763.07;105133;1288;69128;-90
2022/12/03 00:26:43;;;;;;;18.10;11.90;;;;;;;19.36;29.65;101755.40;105145;1288;67228;-90
2022/12/03 00:32:13;;;;;;;17.00;11.10;;;;;;;19.36;29.67;101758.30;104817;1277;82083;31
2022/12/03 00:34:39;;;;;;;19.00;11.90;;;;;;;19.36;29.75;101763.28;104720;1294;72483;-92
2022/12/03 00:37:04;;;;;;;20.20;12.10;;;;;;;19.36;29.57;101760.48;105290;1279;69096;-91
2022/12/03 00:39:30;;;;;;;18.90;11.70;;;;;;;19.36;29.72;101765.54;104978;1284;69125;-92
2022/12/03 00:41:55;;;;;;;20.50;12.00;;;;;;;19.36;29.60;101762.01;105208;1285;69195;-90
2022/12/03 00:44:25;;;;;;;19.40;11.70;;;;;;;19.36;29.62;101762.33;105479;1285;69675;-90
2022/12/03 00:49:29;;;;;;;21.50;11.10;;;;;;;19.36;29.53;101766.00;105164;1287;69199;-90
2022/12/03 00:51:55;;;;;;;20.30;11.90;;;;;;;19.36;29.61;101762.88;105144;1288;66717;-92
2022/12/03 00:54:20;;;;;;;18.80;11.30;;;;;;;19.36;29.45;101764.07;105243;1293;66747;-90
2022/12/03 00:56:46;;;;;;;17.60;11.60;;;;;;;19.36;29.56;101766.72;105396;1292;69721;-90
2022/12/03 00:59:11;;;;;;;19.50;12.30;;;;;;;19.37;29.56;101763.16;105294;1290;69099;-90
2022/12/03 01:01:37;;;;;;;19.50;11.30;;;;;;;19.37;29.58;101759.89;105028;1288;69070;-92
2022/12/03 01:04:02;;;;;;;19.90;12.10;;;;;;;19.37;29.50;101763.81;105064;1291;69579;-92
2022/12/03 01:06:28;;;;;;;18.70;11.70;;;;;;;19.37;29.56;101764.91;105315;1285;69618;-92
2022/12/03 01:08:53;;;;;;;17.20;11.70;;;;;;;19.37;29.49;101764.10;105328;1287;69182;-92
2022/12/03 01:11:37;;;;;;;17.00;10.90;;;;;;;19.38;29.53;101768.14;105191;1284;69241;-91
2022/12/03 01:14:10;;;;;;;19.70;11.70;;;;;;;19.38;29.35;101769.21;105324;1276;82071;-91
2022/12/03 01:16:36;;;;;;;19.90;11.30;;;;;;;19.37;29.46;101766.89;104884;1288;73268;-92
2022/12/03 01:19:02;;;;;;;17.60;11.10;;;;;;;19.37;29.51;101765.23;105123;1291;69228;-92
2022/12/03 01:21:27;;;;;;;17.60;11.20;;;;;;;19.38;29.52;101767.36;105305;1287;69496;-92
2022/12/03 01:24:02;;;;;;;17.00;10.70;;;;;;;19.38;29.37;101767.05;105181;1287;68223;-92
2022/12/03 01:26:28;;;;;;;17.70;11.30;;;;;;;19.38;29.30;101764.40;105393;1279;81978;-91
2022/12/03 01:29:01;;;;;;;18.50;11.70;;;;;;;19.38;29.33;101768.48;105054;1276;66877;31
2022/12/03 01:34:21;;;;;;;16.60;9.80;;;;;;;19.38;29.31;101769.46;104820;1288;69190;-92
2022/12/03 01:36:47;;;;;;;16.50;10.80;;;;;;;19.37;29.34;101767.87;105183;1284;69135;-92
2022/12/03 01:39:12;;;;;;;14.20;10.50;;;;;;;19.37;29.31;101769.40;105413;1292;69755;-90
2022/12/03 01:41:38;;;;;;;16.50;10.40;;;;;;;19.38;29.24;101770.90;105181;1292;69270;-91
2022/12/03 01:47:14;;;;;;;16.00;10.50;;;;;;;19.37;29.29;101772.91;105645;1283;73248;-91
2022/12/03 01:52:10;;;;;;;15.40;10.70;;;;;;;19.38;29.33;101772.89;105435;1281;71108;-92
2022/12/03 01:54:39;;;;;;;13.80;10.00;;;;;;;19.38;29.30;101773.61;105032;1296;69113;-93
2022/12/03 01:57:05;;;;;;;16.60;10.80;;;;;;;19.38;29.19;101771.10;105313;1287;69073;-90
2022/12/03 01:59:33;;;;;;;18.50;11.30;;;;;;;19.39;29.22;101771.42;105411;1287;74303;-90
2022/12/03 02:02:13;;;;;;;16.40;10.30;;;;;;;19.39;29.16;101771.73;104950;1292;82096;-92
2022/12/03 02:04:38;;;;;;;17.40;10.70;;;;;;;19.39;29.30;101771.41;104784;1292;72367;-92
2022/12/03 02:07:27;;;;;;;15.50;10.60;;;;;;;19.39;29.23;101771.41;104719;1293;69247;-92
2022/12/03 02:09:55;;;;;;;16.00;10.70;;;;;;;19.40;29.08;101779.81;104864;1292;69041;-92
2022/12/03 02:12:24;;;;;;;15.70;10.60;;;;;;;19.38;29.23;101779.53;104986;1285;74348;-92
2022/12/03 02:14:49;;;;;;;16.10;10.70;;;;;;;19.39;29.18;101780.64;105058;1288;82090;-93
2022/12/03 02:17:15;;;;;;;15.10;10.40;;;;;;;19.38;29.27;101780.34;104809;1288;66874;-92
2022/12/03 02:19:41;;;;;;;17.30;10.70;;;;;;;19.39;29.21;101779.99;105006;1288;67939;-92
2022/12/03 02:22:44;;;;;;;15.70;9.70;;;;;;;19.39;29.22;101782.33;104944;1292;69225;-92
2022/12/03 02:25:14;;;;;;;17.00;11.10;;;;;;;19.38;29.11;101782.59;105002;1289;74301;-92
2022/12/03 02:27:40;;;;;;;15.20;10.90;;;;;;;19.38;29.25;101780.69;105050;1292;82822;-92
2022/12/03 02:30:06;;;;;;;17.30;10.60;;;;;;;19.38;29.21;101782.11;104584;1288;364834;-93
2022/12/03 02:32:32;;;;;;;17.00;11.10;;;;;;;19.38;29.12;101782.52;104850;1291;69351;-92
2022/12/03 02:34:57;;;;;;;14.30;10.30;;;;;;;19.37;29.19;101783.90;105477;1291;69289;-92
2022/12/03 02:37:37;;;;;;;19.00;11.10;;;;;;;19.38;29.12;101781.96;105097;1286;69164;-92
2022/12/03 02:40:05;;;;;;;17.30;10.90;;;;;;;19.38;29.17;101783.09;105075;1293;72408;-92
2022/12/03 02:42:35;;;;;;;14.00;9.60;;;;;;;19.38;29.11;101785.83;105278;1288;68345;-92
2022/12/03 02:45:06;;;;;;;15.10;10.80;;;;;;;19.38;29.19;101787.42;105253;1284;69061;-92
2022/12/03 02:47:42;;;;;;;14.20;10.50;;;;;;;19.38;29.19;101784.45;105541;1276;75333;-90
2022/12/03 02:50:09;;;;;;;15.10;10.30;;;;;;;19.38;29.08;101784.52;105513;1285;81987;-89
2022/12/03 02:52:38;;;;;;;17.00;10.20;;;;;;;19.38;29.23;101789.47;105185;1279;69208;-89
2022/12/03 02:55:04;;;;;;;15.70;10.60;;;;;;;19.39;29.27;101786.90;105155;1294;69108;-90
2022/12/03 02:57:30;;;;;;;15.00;10.70;;;;;;;19.38;29.20;101792.69;105391;1276;69191;-90
2022/12/03 02:59:56;;;;;;;14.20;10.00;;;;;;;19.39;29.31;101793.79;105241;1279;69287;-90
2022/12/03 03:02:21;;;;;;;14.90;10.40;;;;;;;19.39;29.18;101792.52;105407;1292;69121;-89
2022/12/03 03:04:50;;;;;;;15.80;10.40;;;;;;;19.39;29.15;101794.91;105431;1284;69245;-90
2022/12/03 03:07:16;;;;;;;17.70;10.70;;;;;;;19.40;29.23;101796.66;105204;1288;69020;-90
2022/12/03 03:09:41;;;;;;;16.00;10.70;;;;;;;19.40;29.22;101791.77;105125;1280;68304;-92
2022/12/03 03:12:08;;;;;;;17.30;10.60;;;;;;;19.40;29.27;101796.00;105348;1285;69055;-90
2022/12/03 03:14:33;;;;;;;15.90;10.90;;;;;;;19.40;29.16;101798.25;105416;1291;69094;-90
2022/12/03 03:17:03;;;;;;;17.50;10.60;;;;;;;19.40;29.29;101799.63;105340;1288;69262;-92
2022/12/03 03:19:37;;;;;;;15.00;10.40;;;;;;;19.40;29.19;101803.36;105321;1288;69570;31
2022/12/03 03:22:02;;;;;;;16.90;11.00;;;;;;;19.41;29.30;101804.89;104937;1290;74299;-90
2022/12/03 03:24:28;;;;;;;14.70;10.40;;;;;;;19.41;29.20;101803.67;105387;1283;69195;-92
2022/12/03 03:26:53;;;;;;;16.40;10.70;;;;;;;19.41;29.13;101808.98;105383;1284;68337;-90
2022/12/03 03:29:23;;;;;;;15.00;10.10;;;;;;;19.41;29.17;101811.94;105406;1291;69106;-90
2022/12/03 03:31:49;;;;;;;18.10;11.00;;;;;;;19.41;29.22;101810.10;105495;1282;69126;-90
2022/12/03 03:36:44;;;;;;;16.10;10.70;;;;;;;19.41;29.25;101810.56;105807;1288;81836;-90
2022/12/03 03:39:17;;;;;;;15.60;10.50;;;;;;;19.41;29.22;101807.35;105473;1279;66900;-90
2022/12/03 03:41:43;;;;;;;19.10;11.00;;;;;;;19.40;29.25;101810.04;105224;1285;69188;-92
2022/12/03 03:44:08;;;;;;;18.60;10.90;;;;;;;19.41;29.24;101808.73;105097;1287;69233;-92
2022/12/03 03:46:34;;;;;;;15.10;10.20;;;;;;;19.40;29.15;101809.95;105202;1274;69216;-91
2022/12/03 03:49:01;;;;;;;17.00;11.10;;;;;;;19.40;29.19;101807.69;104777;1288;69699;-91
2022/12/03 03:51:26;;;;;;;20.00;10.60;;;;;;;19.40;29.20;101811.63;105363;1285;67818;-92
2022/12/03 03:53:52;;;;;;;17.40;10.50;;;;;;;19.40;29.21;101812.85;105416;1286;69119;-90
2022/12/03 03:56:18;;;;;;;16.80;10.80;;;;;;;19.40;29.16;101814.93;105426;1286;66727;-90
2022/12/03 03:58:43;;;;;;;16.20;10.10;;;;;;;19.40;29.23;101821.58;105326;1293;69229;-90
2022/12/03 04:03:38;;;;;;;17.70;10.60;;;;;;;19.40;29.13;101814.20;105477;1289;66820;-90
2022/12/03 04:06:04;;;;;;;15.10;10.80;;;;;;;19.41;29.33;101816.42;105273;1287;69189;-92
2022/12/03 04:08:38;;;;;;;14.80;10.20;;;;;;;19.40;29.20;101820.05;104964;1292;68370;-91
2022/12/03 04:13:47;;;;;;;19.10;11.10;;;;;;;19.40;29.21;101823.41;105289;1284;72772;-92
2022/12/03 04:16:32;;;;;;;16.30;10.50;;;;;;;19.40;29.17;101825.45;104953;1284;69279;31
2022/12/03 04:18:58;;;;;;;17.20;11.30;;;;;;;19.40;29.26;101827.29;105079;1292;69186;-91
2022/12/03 04:24:08;;;;;;;17.20;10.80;;;;;;;19.40;29.17;101827.13;105690;1285;82038;-91
2022/12/03 04:29:19;;;;;;;15.00;10.20;;;;;;;19.39;29.25;101833.95;105510;1288;66544;-92
2022/12/03 04:37:17;;;;;;;17.20;11.40;;;;;;;19.40;29.17;101832.17;105579;1285;83059;-89
2022/12/03 04:39:43;;;;;;;15.90;11.30;;;;;;;19.40;29.22;101833.36;105211;1288;72827;-91
2022/12/03 04:42:08;;;;;;;16.60;10.90;;;;;;;19.40;29.21;101833.77;105525;1285;68323;-91
2022/12/03 04:44:37;;;;;;;16.60;11.20;;;;;;;19.40;29.18;101837.61;105566;1285;69052;-93
2022/12/03 04:47:14;;;;;;;14.10;10.40;;;;;;;19.41;29.20;101839.91;105621;1288;66872;-92
2022/12/03 04:49:47;;;;;;;16.20;10.60;;;;;;;19.41;29.14;101837.83;105627;1279;82120;-91
2022/12/03 04:52:18;;;;;;;15.60;10.80;;;;;;;19.41;29.14;101839.52;105201;1279;72455;-89
2022/12/03 04:54:43;;;;;;;18.10;11.10;;;;;;;19.42;29.21;101847.19;105132;1288;69096;-90
2022/12/03 04:57:13;;;;;;;17.90;10.90;;;;;;;19.41;29.12;101840.23;105325;1292;68228;-90
2022/12/03 04:59:43;;;;;;;18.40;11.00;;;;;;;19.42;29.24;101841.42;105402;1287;75586;-90
2022/12/03 05:02:12;;;;;;;16.30;11.20;;;;;;;19.41;29.21;101838.95;105414;1294;82104;-91
2022/12/03 05:04:42;;;;;;;17.00;11.30;;;;;;;19.42;29.05;101841.39;105479;1287;72600;-91
2022/12/03 05:07:11;;;;;;;17.50;11.20;;;;;;;19.42;29.22;101839.46;105241;1288;69017;-90
2022/12/03 05:09:37;;;;;;;16.90;11.20;;;;;;;19.42;29.11;101835.06;105086;1287;69137;-90
2022/12/03 05:12:03;;;;;;;16.10;11.10;;;;;;;19.42;29.18;101838.73;105193;1284;69176;-92
2022/12/03 05:14:28;;;;;;;16.10;11.10;;;;;;;19.42;29.17;101836.24;105296;1286;69147;-90
2022/12/03 05:16:54;;;;;;;17.90;12.10;;;;;;;19.43;29.09;101835.59;105083;1285;69250;-90
2022/12/03 05:20:40;;;;;;;17.20;11.50;;;;;;;19.43;29.18;101837.11;104996;1275;69275;-90
2022/12/03 05:22:13;;;;;;;15.80;10.50;;;;;;;19.43;29.03;101842.17;104839;1282;74452;-89
2022/12/03 05:24:39;;;;;;;18.40;11.40;;;;;;;19.42;29.05;101839.45;104631;1292;82052;-92
2022/12/03 05:27:04;;;;;;;17.80;11.40;;;;;;;19.42;29.14;101847.81;104861;1285;69184;-92
2022/12/03 05:29:29;;;;;;;18.50;10.90;;;;;;;19.42;28.98;101852.63;104787;1293;69113;-92
2022/12/03 05:31:55;;;;;;;17.50;11.40;;;;;;;19.43;29.06;101851.96;104834;1289;69217;-91
2022/12/03 05:34:20;;;;;;;15.30;10.90;;;;;;;19.42;29.03;101856.40;105040;1285;69137;-93
2022/12/03 05:39:18;;;;;;;17.50;11.00;;;;;;;19.42;28.92;101856.64;105472;1283;68219;-91
2022/12/03 05:44:31;;;;;;;15.90;11.00;;;;;;;19.41;29.19;101864.44;105291;1291;74321;-90
2022/12/03 05:46:57;;;;;;;18.80;11.80;;;;;;;19.42;29.07;101868.98;105294;1291;69170;-91
2022/12/03 05:49:27;;;;;;;15.80;11.20;;;;;;;19.41;28.93;101868.22;105579;1288;69110;-92
2022/12/03 05:52:12;;;;;;;16.70;11.90;;;;;;;19.42;29.05;101871.08;105395;1290;69076;31
2022/12/03 05:54:37;;;;;;;17.40;10.70;;;;;;;19.42;29.02;101874.70;105203;1290;67107;-92
2022/12/03 05:57:03;;;;;;;18.90;11.70;;;;;;;19.42;29.05;101878.13;105655;1288;69172;-91
2022/12/03 05:59:28;;;;;;;15.70;11.30;;;;;;;19.42;29.08;101881.81;105383;1288;69179;-92
2022/12/03 06:01:54;;;;;;;16.80;12.00;;;;;;;19.42;29.09;101882.29;105494;1288;67746;-92
2022/12/03 06:04:19;;;;;;;16.60;11.40;;;;;;;19.43;29.10;101885.78;105752;1277;67921;-91
2022/12/03 06:09:11;;;;;;;15.40;10.40;;;;;;;19.44;29.05;101888.24;105798;1282;69196;-92
2022/12/03 06:11:38;;;;;;;20.00;11.40;;;;;;;19.44;28.96;101889.43;105693;1288;69583;-91
2022/12/03 06:14:12;;;;;;;15.90;11.30;;;;;;;19.44;28.94;101891.02;105642;1286;66833;-93
2022/12/03 06:16:46;;;;;;;17.90;11.50;;;;;;;19.45;29.00;101891.75;105751;1288;69061;-92
2022/12/03 06:19:12;;;;;;;16.00;11.20;;;;;;;19.45;29.00;101894.92;105730;1280;74316;-92
2022/12/03 06:24:08;;;;;;;15.30;11.10;;;;;;;19.45;29.09;101893.50;105602;1285;72259;-92
2022/12/03 06:26:33;;;;;;;15.90;10.70;;;;;;;19.45;29.00;101897.08;105373;1284;69203;-93
2022/12/03 06:28:59;;;;;;;17.00;11.20;;;;;;;19.46;29.12;101896.02;105247;1294;69137;-92
2022/12/03 06:31:24;;;;;;;16.40;11.30;;;;;;;19.46;29.06;101898.98;104812;1293;69269;-91
2022/12/03 06:33:50;;;;;;;15.60;10.80;;;;;;;19.46;28.94;101897.61;105001;1294;66614;-92
2022/12/03 06:36:15;;;;;;;16.40;11.10;;;;;;;19.46;29.07;101902.91;104634;1296;69254;-92
2022/12/03 06:38:41;;;;;;;14.70;10.40;;;;;;;19.46;28.95;101905.96;104615;1293;69194;-91
2022/12/03 06:41:06;;;;;;;17.00;11.40;;;;;;;19.46;29.01;101907.34;104516;1299;69464;-91
2022/12/03 06:43:32;;;;;;;17.50;11.10;;;;;;;19.45;28.91;101908.40;104651;1296;69194;-92
2022/12/03 06:46:00;;;;;;;16.00;11.50;;;;;;;19.45;28.95;101912.02;104718;1295;67760;-91
2022/12/03 06:48:26;;;;;;;17.00;11.30;;;;;;;19.45;29.08;101914.37;104670;1285;69131;-92
2022/12/03 06:50:51;;;;;;;17.00;10.70;;;;;;;19.44;29.14;101915.41;104760;1293;69173;-91
2022/12/03 06:53:17;;;;;;;17.80;11.00;;;;;;;19.44;28.98;101918.97;104669;1295;69338;-92
2022/12/03 06:55:42;;;;;;;14.70;11.00;;;;;;;19.43;28.91;101919.00;104810;1292;70035;-92
2022/12/03 06:58:08;;;;;;;16.20;11.20;;;;;;;19.43;28.94;101924.15;105008;1293;69119;-91
2022/12/03 07:00:35;;;;;;;14.60;10.90;;;;;;;19.42;28.87;101922.23;104992;1296;69233;-92
2022/12/03 07:03:00;;;;;;;16.60;10.70;;;;;;;19.42;28.99;101922.00;104621;1286;69179;-92
2022/12/03 07:05:25;;;;;;;18.00;10.70;;;;;;;19.42;29.05;101923.05;104834;1294;69175;-91
2022/12/03 07:07:54;;;;;;;17.70;10.60;;;;;;;19.42;29.03;101924.34;104709;1291;69208;-92
2022/12/03 07:10:20;;;;;;;14.30;10.60;;;;;;;19.42;29.00;101926.77;104648;1294;69167;-91
2022/12/03 07:12:45;;;;;;;16.40;10.80;;;;;;;19.42;28.99;101925.77;104726;1285;69198;-92
2022/12/03 07:15:11;;;;;;;16.70;11.30;;;;;;;19.42;29.01;101926.52;104645;1293;69257;-92
2022/12/03 07:17:36;;;;;;;16.30;11.00;;;;;;;19.42;28.95;101925.55;104775;1292;69567;-92
2022/12/03 07:20:05;;;;;;;15.90;10.70;;;;;;;19.41;29.03;101924.21;105090;1291;69291;-92
2022/12/03 07:22:35;;;;;;;16.10;10.70;;;;;;;19.41;28.95;101926.70;105123;1281;74340;-93
2022/12/03 07:25:00;;;;;;;17.40;11.00;;;;;;;19.41;28.94;101928.29;105444;1292;81130;-91
2022/12/03 07:29:54;;;;;;;18.00;11.40;;;;;;;19.41;29.05;101928.79;105436;1291;69080;-92
2022/12/03 07:32:24;;;;;;;18.10;11.50;;;;;;;19.41;28.97;101928.45;105343;1287;68347;-92
2022/12/03 07:34:54;;;;;;;16.40;11.10;;;;;;;19.40;29.03;101931.38;105443;1288;74708;-92
2022/12/03 07:37:19;;;;;;;17.20;11.30;;;;;;;19.41;29.03;101935.93;105187;1295;82279;-92
2022/12/03 07:39:45;;;;;;;16.40;11.00;;;;;;;19.41;29.09;101942.67;105112;1292;68845;-91
2022/12/03 07:42:10;;;;;;;16.40;11.80;;;;;;;19.41;28.91;101946.84;104864;1291;69269;-92
2022/12/03 07:44:36;;;;;;;17.70;11.70;;;;;;;19.41;29.02;101951.18;105053;1292;69181;-92
2022/12/03 07:47:01;;;;;;;18.80;11.50;;;;;;;19.41;28.98;101950.77;105226;1288;69924;-92
2022/12/03 07:49:27;;;;;;;14.20;10.80;;;;;;;19.40;28.96;101953.12;105075;1287;69146;-92
2022/12/03 07:51:53;;;;;;;16.00;11.70;;;;;;;19.41;29.04;101953.73;105038;1275;69416;-92
2022/12/03 07:56:48;;;;;;;19.00;11.50;;;;;;;19.40;28.99;101951.13;105430;1282;72910;-92
2022/12/03 07:59:14;;;;;;;17.40;11.50;;;;;;;19.40;29.12;101947.84;105096;1282;69081;-92
2022/12/03 08:01:40;;;;;;;16.20;11.50;;;;;;;19.39;28.98;101955.33;105136;1285;68491;-92
2022/12/03 08:04:11;;;;;;;14.90;11.70;;;;;;;19.39;29.04;101954.27;105205;1293;69149;-91
2022/12/03 08:06:41;;;;;;;15.10;11.60;;;;;;;19.40;28.98;101952.59;105355;1289;69014;-90
2022/12/03 08:09:07;;;;;;;18.60;11.50;;;;;;;19.39;29.08;101953.65;105040;1293;74393;-92
2022/12/03 08:11:32;;;;;;;17.20;11.10;;;;;;;19.38;28.97;101954.55;105207;1292;66879;-92
2022/12/03 08:13:58;;;;;;;17.10;11.20;;;;;;;19.39;29.09;101957.27;105505;1293;69209;-92
2022/12/03 08:16:23;;;;;;;17.70;12.30;;;;;;;19.38;29.04;101961.59;105437;1284;69560;-91
2022/12/03 08:18:49;;;;;;;15.90;11.70;;;;;;;19.38;29.02;101965.63;105548;1288;67681;-90
2022/12/03 08:23:42;;;;;;;15.40;11.30;;;;;;;19.39;29.06;101965.59;105483;1291;71723;-90
2022/12/03 08:26:27;;;;;;;16.70;12.20;;;;;;;19.38;29.06;101964.25;105382;1294;68205;-91
2022/12/03 08:28:53;;;;;;;18.40;12.20;;;;;;;19.38;29.10;101964.25;105454;1279;68339;-91
2022/12/03 08:31:24;;;;;;;15.80;11.80;;;;;;;19.38;29.13;101957.61;105285;1280;69039;-91
2022/12/03 08:33:52;;;;;;;16.80;11.90;;;;;;;19.38;29.12;101957.76;105282;1271;83022;-91
2022/12/03 08:36:23;;;;;;;16.60;11.90;;;;;;;19.38;29.14;101958.73;105130;1285;72231;31
2022/12/03 08:38:57;;;;;;;17.40;11.70;;;;;;;19.38;29.07;101949.75;104920;1294;69296;-90
2022/12/03 08:44:19;;;;;;;19.70;12.60;;;;;;;19.37;29.15;101950.90;105161;1285;74459;-91
2022/12/03 08:46:49;;;;;;;19.50;12.20;;;;;;;19.37;29.17;101952.83;105290;1288;82340;-92
2022/12/03 08:49:14;;;;;;;18.80;12.30;;;;;;;19.37;29.13;101955.23;105329;1294;73244;-92
2022/12/03 08:51:50;;;;;;;16.60;12.30;;;;;;;19.37;29.16;101954.27;105402;1275;69291;-92
2022/12/03 08:54:20;;;;;;;17.30;11.80;;;;;;;19.37;29.15;101952.77;105126;1291;68990;31
2022/12/03 08:56:46;;;;;;;16.80;12.10;;;;;;;19.37;29.08;101946.35;105010;1287;74497;-90
2022/12/03 08:59:20;;;;;;;17.80;12.30;;;;;;;19.37;29.14;101949.40;105215;1292;69509;-92
2022/12/03 09:01:46;;;;;;;17.50;12.70;;;;;;;19.36;29.31;101952.46;105316;1291;72296;-91
2022/12/03 09:04:20;;;;;;;18.70;12.20;;;;;;;19.36;29.15;101950.30;105363;1288;69246;-90
2022/12/03 09:06:45;;;;;;;18.20;12.40;;;;;;;19.36;29.20;101953.84;105435;1288;66818;-89
2022/12/03 09:09:18;;;;;;;19.00;13.00;;;;;;;19.36;29.22;101946.79;105489;1289;69234;31
2022/12/03 09:11:44;;;;;;;18.70;12.40;;;;;;;19.36;29.26;101945.04;105154;1295;82004;-92
2022/12/03 09:14:09;;;;;;;18.20;12.90;;;;;;;19.36;29.22;101942.70;105388;1288;69199;-93
2022/12/03 09:19:25;;;;;;;17.00;12.60;;;;;;;19.36;29.24;101943.41;105930;1284;69109;-91
2022/12/03 09:21:52;;;;;;;19.00;13.20;;;;;;;19.36;29.30;101941.32;105861;1288;69034;-90
2022/12/03 09:24:22;;;;;;;20.90;13.40;;;;;;;19.37;29.21;101935.84;105170;1282;67737;-90
2022/12/03 09:26:47;;;;;;;18.40;13.30;;;;;;;19.37;29.28;101932.73;105251;1292;72671;-92
2022/12/03 09:29:13;;;;;;;19.80;13.70;;;;;;;19.37;29.31;101931.43;105506;1287;69164;-91
2022/12/03 09:31:39;;;;;;;21.10;13.80;;;;;;;19.36;29.30;101927.59;106581;1287;66608;-90
2022/12/03 09:34:05;;;;;;;18.00;13.00;;;;;;;19.37;29.27;101928.54;106940;1279;66415;-90
2022/12/03 09:36:34;;;;;;;18.30;13.10;;;;;;;19.37;29.28;101927.89;106803;1283;67651;-89
2022/12/03 09:41:36;;;;;;;18.60;13.50;;;;;;;19.38;29.47;101921.42;106432;1290;66520;-90
2022/12/03 09:44:02;;;;;;;18.20;12.70;;;;;;;19.39;29.39;101920.61;106893;1271;66344;-92
2022/12/03 09:46:28;;;;;;;19.00;13.80;;;;;;;19.39;29.32;101912.16;106890;1287;66686;-92
2022/12/03 09:48:54;;;;;;;18.80;13.50;;;;;;;19.40;29.48;101911.26;105949;1288;66848;-91
2022/12/03 09:51:19;;;;;;;19.00;14.00;;;;;;;19.41;29.36;101908.17;105181;1283;69218;-91
2022/12/03 09:53:45;;;;;;;19.40;13.30;;;;;;;19.42;29.37;101912.70;105205;1288;69252;-92
2022/12/03 09:56:15;;;;;;;18.60;13.40;;;;;;;19.42;29.28;101912.70;105649;1292;74270;-90
2022/12/03 09:58:41;;;;;;;17.40;12.60;;;;;;;19.43;29.25;101912.60;105682;1288;82322;-92
2022/12/03 10:01:11;;;;;;;18.70;12.90;;;;;;;19.43;29.22;101915.57;105061;1288;68265;-90
2022/12/03 10:03:37;;;;;;;18.70;13.40;;;;;;;19.44;29.33;101915.45;105499;1287;67116;-90
2022/12/03 10:06:09;;;;;;;18.60;13.10;;;;;;;19.44;29.34;101917.60;105218;1289;69261;-88
2022/12/03 10:08:34;;;;;;;16.90;13.30;;;;;;;19.44;29.30;101914.29;105035;1294;74259;-92
2022/12/03 10:11:00;;;;;;;21.80;13.50;;;;;;;19.45;29.23;101915.08;105559;1292;69138;-91
2022/12/03 10:13:27;;;;;;;22.00;14.10;;;;;;;19.45;29.33;101915.89;105269;1287;69159;-92
2022/12/03 10:18:53;;;;;;;23.90;13.60;;;;;;;19.44;29.36;101919.50;105708;1285;67566;-90
2022/12/03 10:21:39;;;;;;;21.60;12.80;;;;;;;19.45;29.32;101919.66;105489;1283;74294;-91
2022/12/03 10:24:27;;;;;;;18.80;13.80;;;;;;;19.45;29.28;101919.16;105543;1276;82207;-90
2022/12/03 10:27:23;;;;;;;20.90;13.80;;;;;;;19.45;29.33;101918.41;105236;1285;72406;31
2022/12/03 10:32:25;;;;;;;22.60;13.60;;;;;;;19.46;29.27;101917.35;105247;1291;69028;-90
2022/12/03 10:34:50;;;;;;;20.30;13.50;;;;;;;19.46;29.34;101913.64;105493;1288;74304;-90
2022/12/03 10:37:18;;;;;;;23.90;14.40;;;;;;;19.46;29.31;101914.45;105376;1288;69074;-91
2022/12/03 10:40:04;;;;;;;25.30;17.10;;;;;;;19.48;29.31;101910.88;105609;1286;69047;-92
2022/12/03 10:42:31;;;;;;;24.40;16.80;;;;;;;19.47;29.27;101909.27;105302;1291;69020;-92
2022/12/03 10:45:22;;;;;;;33.90;16.70;;;;;;;19.48;29.26;101911.90;105269;1291;66539;-87
2022/12/03 10:48:04;;;;;;;;;;;;;;;19.48;29.36;101910.93;105150;1285;75500;31
2022/12/03 10:50:29;;;;;;;25.90;15.80;;;;;;;19.46;29.45;101915.66;104978;1288;83056;-92
2022/12/03 10:52:55;;;;;;;23.80;15.80;;;;;;;19.47;29.25;101915.20;105504;1291;69077;-92
2022/12/03 10:55:20;;;;;;;26.20;16.40;;;;;;;19.48;29.43;101908.77;105629;1291;69192;-90
2022/12/03 10:57:46;;;;;;;23.70;15.30;;;;;;;19.48;29.33;101905.88;105289;1288;69210;-92
2022/12/03 11:00:19;;;;;;;21.60;15.40;;;;;;;19.49;29.26;101907.13;105288;1286;68937;-93
2022/12/03 11:02:53;;;;;;;23.50;14.70;;;;;;;19.49;29.23;101905.35;105669;1291;72348;31
2022/12/03 11:05:20;;;;;;;23.60;15.70;;;;;;;19.50;29.36;101901.85;105144;1291;69228;-92
2022/12/03 11:07:46;;;;;;;22.00;14.50;;;;;;;19.50;29.42;101898.83;105529;1285;68966;-92
2022/12/03 11:10:16;;;;;;;23.50;15.60;;;;;;;19.50;29.38;101898.39;105325;1288;69144;-91
2022/12/03 11:12:41;;;;;;;24.10;14.80;;;;;;;19.51;29.37;101901.25;105125;1278;81896;-91
2022/12/03 11:15:14;;;;;;;22.90;14.50;;;;;;;19.50;29.33;101899.92;105219;1281;69209;-90
2022/12/03 11:17:52;;;;;;;25.00;14.80;;;;;;;19.51;29.31;101904.80;105296;1291;69371;31
2022/12/03 11:20:24;;;;;;;22.80;15.10;;;;;;;19.51;29.33;101907.91;104857;1285;69177;-92
2022/12/03 11:22:56;;;;;;;20.40;14.20;;;;;;;19.50;29.33;101907.13;105404;1285;74427;-92
2022/12/03 11:25:25;;;;;;;20.50;14.30;;;;;;;19.51;29.38;101903.91;105377;1294;82185;-93
2022/12/03 11:28:09;;;;;;;21.40;14.40;;;;;;;19.50;29.49;101898.30;105375;1292;71308;-92
2022/12/03 11:30:47;;;;;;;19.00;13.60;;;;;;;19.50;29.38;101900.23;105396;1290;69180;-92
2022/12/03 11:33:34;;;;;;;20.60;13.40;;;;;;;19.51;29.48;101900.38;105514;1291;66862;-90
2022/12/03 11:36:02;;;;;;;20.60;14.60;;;;;;;19.50;29.45;101902.89;105183;1282;74366;-92
2022/12/03 11:41:13;;;;;;;20.70;14.10;;;;;;;19.51;29.45;101908.15;105697;1275;71731;-90
2022/12/03 11:43:50;;;;;;;21.60;14.20;;;;;;;19.51;29.44;101908.46;105367;1287;69113;-90
2022/12/03 11:49:29;;;;;;;21.50;13.10;;;;;;;19.51;29.44;101911.99;105688;1291;74380;-92
2022/12/03 11:51:59;;;;;;;17.90;13.00;;;;;;;19.50;29.47;101912.59;105269;1292;81987;-90
2022/12/03 11:54:35;;;;;;;20.60;13.60;;;;;;;19.51;29.49;101911.36;105696;1288;73463;-92
2022/12/03 11:57:01;;;;;;;20.40;13.40;;;;;;;19.51;29.56;101907.25;105408;1290;68301;-90
2022/12/03 12:01:55;;;;;;;22.10;13.30;;;;;;;19.52;29.55;101902.50;105421;1275;73828;-93
2022/12/03 12:04:32;;;;;;;20.60;13.90;;;;;;;19.51;29.53;101900.04;105321;1279;69157;-91
2022/12/03 12:06:58;;;;;;;21.20;13.80;;;;;;;19.51;29.58;101899.70;105179;1288;73582;-92
2022/12/03 12:09:47;;;;;;;19.90;13.40;;;;;;;19.51;29.49;101897.80;105365;1292;69275;-91
2022/12/03 12:12:30;;;;;;;20.70;13.60;;;;;;;19.51;29.47;101894.02;105266;1287;69157;-91
2022/12/03 12:14:56;;;;;;;18.60;12.90;;;;;;;19.51;29.48;101892.18;105139;1276;74611;-91
2022/12/03 12:22:52;;;;;;;18.90;13.50;;;;;;;19.50;29.45;101886.10;105661;1288;69068;-91
2022/12/03 12:25:34;;;;;;;20.90;13.40;;;;;;;19.51;29.45;101884.02;105601;1288;67492;-91
2022/12/03 12:27:59;;;;;;;22.40;13.10;;;;;;;19.51;29.63;101884.41;105264;1283;74389;-92
2022/12/03 12:30:25;;;;;;;20.10;13.50;;;;;;;19.51;29.50;101886.41;105424;1285;69181;-91